sensor_id;sensor_type;location;lat;lon;timestamp;P1;durP1;ratioP1;P2;durP2;ratioP2
66559;SDS011;53413;49.878;8.142;2022-12-28T00:00:46;13.33;;;4.70;;
66559;SDS011;53413;49.878;8.142;2022-12-28T00:03:11;11.97;;;4.37;;
66559;SDS011;53413;49.878;8.142;2022-12-28T00:05:37;15.37;;;4.70;;
66559;SDS011;53413;49.878;8.142;2022-12-28T00:08:02;15.87;;;4.57;;
66559;SDS011;53413;49.878;8.142;2022-12-28T00:10:28;11.40;;;4.53;;
66559;SDS011;53413;49.878;8.142;2022-12-28T00:12:54;13.75;;;4.70;;
66559;SDS011;53413;49.878;8.142;2022-12-28T00:15:20;14.33;;;4.83;;
66559;SDS011;53413;49.878;8.142;2022-12-28T00:17:45;12.10;;;4.57;;
66559;SDS011;53413;49.878;8.142;2022-12-28T00:20:10;10.55;;;4.50;;
66559;SDS011;53413;49.878;8.142;2022-12-28T00:22:36;14.53;;;5.00;;
66559;SDS011;53413;49.878;8.142;2022-12-28T00:25:01;13.13;;;4.87;;
66559;SDS011;53413;49.878;8.142;2022-12-28T00:27:27;13.37;;;5.03;;
66559;SDS011;53413;49.878;8.142;2022-12-28T00:29:52;12.35;;;4.97;;
66559;SDS011;53413;49.878;8.142;2022-12-28T00:32:17;13.65;;;4.30;;
66559;SDS011;53413;49.878;8.142;2022-12-28T00:34:43;14.90;;;5.00;;
66559;SDS011;53413;49.878;8.142;2022-12-28T00:37:08;14.87;;;5.10;;
66559;SDS011;53413;49.878;8.142;2022-12-28T00:39:33;15.17;;;5.37;;
66559;SDS011;53413;49.878;8.142;2022-12-28T00:41:59;13.80;;;5.23;;
66559;SDS011;53413;49.878;8.142;2022-12-28T00:44:24;13.70;;;4.83;;
66559;SDS011;53413;49.878;8.142;2022-12-28T00:46:49;15.00;;;5.00;;
66559;SDS011;53413;49.878;8.142;2022-12-28T00:49:14;12.97;;;4.90;;
66559;SDS011;53413;49.878;8.142;2022-12-28T00:51:40;14.93;;;4.60;;
66559;SDS011;53413;49.878;8.142;2022-12-28T00:54:05;12.00;;;4.80;;
66559;SDS011;53413;49.878;8.142;2022-12-28T00:56:30;12.90;;;4.68;;
66559;SDS011;53413;49.878;8.142;2022-12-28T00:58:56;11.60;;;4.20;;
66559;SDS011;53413;49.878;8.142;2022-12-28T01:01:23;11.47;;;4.40;;
66559;SDS011;53413;49.878;8.142;2022-12-28T01:03:49;11.77;;;4.35;;
66559;SDS011;53413;49.878;8.142;2022-12-28T01:06:16;12.18;;;4.25;;
66559;SDS011;53413;49.878;8.142;2022-12-28T01:08:43;10.77;;;4.47;;
66559;SDS011;53413;49.878;8.142;2022-12-28T01:11:09;13.45;;;4.40;;
66559;SDS011;53413;49.878;8.142;2022-12-28T01:13:36;11.43;;;4.50;;
66559;SDS011;53413;49.878;8.142;2022-12-28T01:18:59;13.52;;;4.93;;
66559;SDS011;53413;49.878;8.142;2022-12-28T01:21:28;12.10;;;4.80;;
66559;SDS011;53413;49.878;8.142;2022-12-28T01:23:55;11.20;;;4.37;;
66559;SDS011;53413;49.878;8.142;2022-12-28T01:26:23;11.05;;;4.30;;
66559;SDS011;53413;49.878;8.142;2022-12-28T01:28:49;12.98;;;5.13;;
66559;SDS011;53413;49.878;8.142;2022-12-28T01:31:16;12.68;;;5.00;;
66559;SDS011;53413;49.878;8.142;2022-12-28T01:33:43;11.25;;;5.13;;
66559;SDS011;53413;49.878;8.142;2022-12-28T01:36:14;12.83;;;5.23;;
66559;SDS011;53413;49.878;8.142;2022-12-28T01:38:40;13.18;;;4.75;;
66559;SDS011;53413;49.878;8.142;2022-12-28T01:41:06;12.43;;;4.50;;
66559;SDS011;53413;49.878;8.142;2022-12-28T01:46:22;10.98;;;4.43;;
66559;SDS011;53413;49.878;8.142;2022-12-28T01:51:42;10.32;;;4.50;;
66559;SDS011;53413;49.878;8.142;2022-12-28T01:54:09;11.20;;;4.30;;
66559;SDS011;53413;49.878;8.142;2022-12-28T01:56:35;10.65;;;4.32;;
66559;SDS011;53413;49.878;8.142;2022-12-28T01:59:01;13.30;;;4.47;;
66559;SDS011;53413;49.878;8.142;2022-12-28T02:01:26;10.73;;;4.30;;
66559;SDS011;53413;49.878;8.142;2022-12-28T02:03:52;11.68;;;4.82;;
66559;SDS011;53413;49.878;8.142;2022-12-28T02:06:17;12.03;;;4.60;;
66559;SDS011;53413;49.878;8.142;2022-12-28T02:08:55;11.15;;;4.85;;
66559;SDS011;53413;49.878;8.142;2022-12-28T02:11:27;13.40;;;4.47;;
66559;SDS011;53413;49.878;8.142;2022-12-28T02:13:53;10.18;;;4.60;;
66559;SDS011;53413;49.878;8.142;2022-12-28T02:16:19;10.83;;;4.47;;
66559;SDS011;53413;49.878;8.142;2022-12-28T02:18:44;11.13;;;4.47;;
66559;SDS011;53413;49.878;8.142;2022-12-28T02:21:55;11.20;;;4.40;;
66559;SDS011;53413;49.878;8.142;2022-12-28T02:24:39;11.20;;;4.80;;
66559;SDS011;53413;49.878;8.142;2022-12-28T02:30:18;13.38;;;5.50;;
66559;SDS011;53413;49.878;8.142;2022-12-28T02:38:17;16.40;;;6.57;;
66559;SDS011;53413;49.878;8.142;2022-12-28T02:40:48;15.13;;;6.30;;
66559;SDS011;53413;49.878;8.142;2022-12-28T02:43:19;15.15;;;6.70;;
66559;SDS011;53413;49.878;8.142;2022-12-28T02:45:46;14.67;;;6.67;;
66559;SDS011;53413;49.878;8.142;2022-12-28T02:48:44;15.05;;;6.40;;
66559;SDS011;53413;49.878;8.142;2022-12-28T02:54:35;14.52;;;6.65;;
66559;SDS011;53413;49.878;8.142;2022-12-28T03:00:08;15.27;;;6.23;;
66559;SDS011;53413;49.878;8.142;2022-12-28T03:08:08;15.45;;;6.38;;
66559;SDS011;53413;49.878;8.142;2022-12-28T03:16:30;12.80;;;5.78;;
66559;SDS011;53413;49.878;8.142;2022-12-28T03:19:18;12.48;;;5.13;;
66559;SDS011;53413;49.878;8.142;2022-12-28T03:22:04;11.55;;;5.32;;
66559;SDS011;53413;49.878;8.142;2022-12-28T03:24:51;12.23;;;4.75;;
66559;SDS011;53413;49.878;8.142;2022-12-28T03:27:36;12.03;;;4.60;;
66559;SDS011;53413;49.878;8.142;2022-12-28T03:30:21;10.90;;;4.53;;
66559;SDS011;53413;49.878;8.142;2022-12-28T03:33:05;10.20;;;4.32;;
66559;SDS011;53413;49.878;8.142;2022-12-28T03:35:42;10.57;;;4.90;;
66559;SDS011;53413;49.878;8.142;2022-12-28T03:38:16;11.93;;;4.40;;
66559;SDS011;53413;49.878;8.142;2022-12-28T03:40:52;9.03;;;4.30;;
66559;SDS011;53413;49.878;8.142;2022-12-28T03:43:25;11.50;;;4.50;;
66559;SDS011;53413;49.878;8.142;2022-12-28T03:46:12;10.65;;;4.43;;
66559;SDS011;53413;49.878;8.142;2022-12-28T03:48:39;10.32;;;4.45;;
66559;SDS011;53413;49.878;8.142;2022-12-28T03:51:05;9.65;;;4.20;;
66559;SDS011;53413;49.878;8.142;2022-12-28T03:53:39;11.60;;;4.23;;
66559;SDS011;53413;49.878;8.142;2022-12-28T03:58:39;11.45;;;4.30;;
66559;SDS011;53413;49.878;8.142;2022-12-28T04:01:05;9.87;;;4.13;;
66559;SDS011;53413;49.878;8.142;2022-12-28T04:03:30;9.52;;;3.90;;
66559;SDS011;53413;49.878;8.142;2022-12-28T04:05:56;10.20;;;4.03;;
66559;SDS011;53413;49.878;8.142;2022-12-28T04:08:21;11.80;;;3.90;;
66559;SDS011;53413;49.878;8.142;2022-12-28T04:10:46;10.53;;;3.93;;
66559;SDS011;53413;49.878;8.142;2022-12-28T04:13:12;11.52;;;3.80;;
66559;SDS011;53413;49.878;8.142;2022-12-28T04:15:37;9.32;;;3.90;;
66559;SDS011;53413;49.878;8.142;2022-12-28T04:18:02;10.73;;;3.80;;
66559;SDS011;53413;49.878;8.142;2022-12-28T04:20:28;11.83;;;3.90;;
66559;SDS011;53413;49.878;8.142;2022-12-28T04:22:53;8.13;;;3.60;;
66559;SDS011;53413;49.878;8.142;2022-12-28T04:25:19;9.53;;;3.90;;
66559;SDS011;53413;49.878;8.142;2022-12-28T04:27:44;10.55;;;3.80;;
66559;SDS011;53413;49.878;8.142;2022-12-28T04:30:10;11.13;;;4.20;;
66559;SDS011;53413;49.878;8.142;2022-12-28T04:32:36;9.83;;;3.77;;
66559;SDS011;53413;49.878;8.142;2022-12-28T04:35:02;11.75;;;4.15;;
66559;SDS011;53413;49.878;8.142;2022-12-28T04:37:27;9.10;;;3.83;;
66559;SDS011;53413;49.878;8.142;2022-12-28T04:39:53;10.10;;;3.70;;
66559;SDS011;53413;49.878;8.142;2022-12-28T04:42:18;9.83;;;3.80;;
66559;SDS011;53413;49.878;8.142;2022-12-28T04:44:44;8.23;;;3.63;;
66559;SDS011;53413;49.878;8.142;2022-12-28T04:47:09;9.57;;;3.93;;
66559;SDS011;53413;49.878;8.142;2022-12-28T04:49:34;11.93;;;4.10;;
66559;SDS011;53413;49.878;8.142;2022-12-28T04:52:00;9.47;;;3.77;;
66559;SDS011;53413;49.878;8.142;2022-12-28T04:54:25;9.40;;;3.60;;
66559;SDS011;53413;49.878;8.142;2022-12-28T04:56:50;8.32;;;3.90;;
66559;SDS011;53413;49.878;8.142;2022-12-28T04:59:16;9.63;;;3.63;;
66559;SDS011;53413;49.878;8.142;2022-12-28T05:01:41;10.77;;;3.83;;
66559;SDS011;53413;49.878;8.142;2022-12-28T05:04:06;10.43;;;4.10;;
66559;SDS011;53413;49.878;8.142;2022-12-28T05:06:32;10.40;;;4.00;;
66559;SDS011;53413;49.878;8.142;2022-12-28T05:08:57;9.33;;;3.90;;
66559;SDS011;53413;49.878;8.142;2022-12-28T05:11:24;9.77;;;3.97;;
66559;SDS011;53413;49.878;8.142;2022-12-28T05:13:51;8.85;;;3.45;;
66559;SDS011;53413;49.878;8.142;2022-12-28T05:16:18;8.63;;;3.50;;
66559;SDS011;53413;49.878;8.142;2022-12-28T05:18:46;7.65;;;3.50;;
66559;SDS011;53413;49.878;8.142;2022-12-28T05:21:13;8.83;;;3.70;;
66559;SDS011;53413;49.878;8.142;2022-12-28T05:23:43;6.88;;;3.42;;
66559;SDS011;53413;49.878;8.142;2022-12-28T05:26:12;8.07;;;3.70;;
66559;SDS011;53413;49.878;8.142;2022-12-28T05:28:40;8.33;;;3.70;;
66559;SDS011;53413;49.878;8.142;2022-12-28T05:31:09;10.43;;;3.30;;
66559;SDS011;53413;49.878;8.142;2022-12-28T05:33:36;8.05;;;3.55;;
66559;SDS011;53413;49.878;8.142;2022-12-28T05:36:12;8.07;;;3.28;;
66559;SDS011;53413;49.878;8.142;2022-12-28T05:38:42;7.80;;;2.90;;
66559;SDS011;53413;49.878;8.142;2022-12-28T05:41:12;7.45;;;3.30;;
66559;SDS011;53413;49.878;8.142;2022-12-28T05:43:42;7.70;;;2.97;;
66559;SDS011;53413;49.878;8.142;2022-12-28T05:46:09;6.15;;;2.83;;
66559;SDS011;53413;49.878;8.142;2022-12-28T05:48:37;7.80;;;2.90;;
66559;SDS011;53413;49.878;8.142;2022-12-28T05:51:04;8.07;;;2.80;;
66559;SDS011;53413;49.878;8.142;2022-12-28T05:53:31;7.22;;;2.88;;
66559;SDS011;53413;49.878;8.142;2022-12-28T05:58:45;8.23;;;2.75;;
66559;SDS011;53413;49.878;8.142;2022-12-28T06:01:17;6.38;;;2.90;;
66559;SDS011;53413;49.878;8.142;2022-12-28T06:03:44;7.77;;;2.80;;
66559;SDS011;53413;49.878;8.142;2022-12-28T06:06:14;7.20;;;2.67;;
66559;SDS011;53413;49.878;8.142;2022-12-28T06:08:42;8.88;;;2.90;;
66559;SDS011;53413;49.878;8.142;2022-12-28T06:11:12;8.32;;;2.80;;
66559;SDS011;53413;49.878;8.142;2022-12-28T06:13:39;7.22;;;2.78;;
66559;SDS011;53413;49.878;8.142;2022-12-28T06:16:05;7.40;;;2.80;;
66559;SDS011;53413;49.878;8.142;2022-12-28T06:18:31;7.60;;;2.65;;
66559;SDS011;53413;49.878;8.142;2022-12-28T06:21:31;9.17;;;2.67;;
66559;SDS011;53413;49.878;8.142;2022-12-28T06:23:49;6.40;;;2.50;;
66559;SDS011;53413;49.878;8.142;2022-12-28T06:26:15;6.90;;;2.65;;
66559;SDS011;53413;49.878;8.142;2022-12-28T06:28:43;7.05;;;2.40;;
66559;SDS011;53413;49.878;8.142;2022-12-28T06:31:11;6.00;;;2.53;;
66559;SDS011;53413;49.878;8.142;2022-12-28T06:33:38;7.07;;;2.50;;
66559;SDS011;53413;49.878;8.142;2022-12-28T06:36:09;7.93;;;2.78;;
66559;SDS011;53413;49.878;8.142;2022-12-28T06:38:36;6.35;;;2.55;;
66559;SDS011;53413;49.878;8.142;2022-12-28T06:41:02;6.60;;;2.73;;
66559;SDS011;53413;49.878;8.142;2022-12-28T06:43:32;8.18;;;2.60;;
66559;SDS011;53413;49.878;8.142;2022-12-28T06:45:59;8.73;;;2.70;;
66559;SDS011;53413;49.878;8.142;2022-12-28T06:48:25;6.68;;;2.80;;
66559;SDS011;53413;49.878;8.142;2022-12-28T06:50:54;6.18;;;2.40;;
66559;SDS011;53413;49.878;8.142;2022-12-28T06:53:20;6.37;;;2.50;;
66559;SDS011;53413;49.878;8.142;2022-12-28T06:55:53;6.97;;;2.40;;
66559;SDS011;53413;49.878;8.142;2022-12-28T06:58:19;7.40;;;2.45;;
66559;SDS011;53413;49.878;8.142;2022-12-28T07:00:44;7.50;;;2.50;;
66559;SDS011;53413;49.878;8.142;2022-12-28T07:03:10;6.17;;;2.50;;
66559;SDS011;53413;49.878;8.142;2022-12-28T07:05:35;6.87;;;2.60;;
66559;SDS011;53413;49.878;8.142;2022-12-28T07:08:00;5.63;;;2.30;;
66559;SDS011;53413;49.878;8.142;2022-12-28T07:10:26;6.40;;;2.60;;
66559;SDS011;53413;49.878;8.142;2022-12-28T07:12:51;8.20;;;2.53;;
66559;SDS011;53413;49.878;8.142;2022-12-28T07:15:16;5.67;;;2.40;;
66559;SDS011;53413;49.878;8.142;2022-12-28T07:17:42;5.37;;;2.30;;
66559;SDS011;53413;49.878;8.142;2022-12-28T07:20:07;7.77;;;2.60;;
66559;SDS011;53413;49.878;8.142;2022-12-28T07:22:33;5.53;;;2.13;;
66559;SDS011;53413;49.878;8.142;2022-12-28T07:24:58;6.10;;;2.50;;
66559;SDS011;53413;49.878;8.142;2022-12-28T07:27:23;6.90;;;2.63;;
66559;SDS011;53413;49.878;8.142;2022-12-28T07:29:49;7.43;;;2.77;;
66559;SDS011;53413;49.878;8.142;2022-12-28T07:32:14;7.70;;;2.67;;
66559;SDS011;53413;49.878;8.142;2022-12-28T07:34:39;5.93;;;2.80;;
66559;SDS011;53413;49.878;8.142;2022-12-28T07:37:04;6.33;;;2.80;;
66559;SDS011;53413;49.878;8.142;2022-12-28T07:39:30;5.27;;;2.30;;
66559;SDS011;53413;49.878;8.142;2022-12-28T07:41:55;7.87;;;2.57;;
66559;SDS011;53413;49.878;8.142;2022-12-28T07:44:20;6.53;;;2.50;;
66559;SDS011;53413;49.878;8.142;2022-12-28T07:46:46;8.23;;;3.30;;
66559;SDS011;53413;49.878;8.142;2022-12-28T07:49:11;7.20;;;2.85;;
66559;SDS011;53413;49.878;8.142;2022-12-28T07:51:37;8.47;;;2.83;;
66559;SDS011;53413;49.878;8.142;2022-12-28T07:54:03;5.97;;;2.70;;
66559;SDS011;53413;49.878;8.142;2022-12-28T07:56:30;6.50;;;2.30;;
66559;SDS011;53413;49.878;8.142;2022-12-28T07:58:57;5.75;;;2.50;;
66559;SDS011;53413;49.878;8.142;2022-12-28T08:01:25;9.18;;;3.00;;
66559;SDS011;53413;49.878;8.142;2022-12-28T08:03:57;6.25;;;2.33;;
66559;SDS011;53413;49.878;8.142;2022-12-28T08:06:24;6.60;;;2.70;;
66559;SDS011;53413;49.878;8.142;2022-12-28T08:08:51;7.72;;;2.90;;
66559;SDS011;53413;49.878;8.142;2022-12-28T08:11:19;8.02;;;3.38;;
66559;SDS011;53413;49.878;8.142;2022-12-28T08:13:47;7.95;;;2.90;;
66559;SDS011;53413;49.878;8.142;2022-12-28T08:16:14;5.93;;;2.50;;
66559;SDS011;53413;49.878;8.142;2022-12-28T08:18:42;6.47;;;2.60;;
66559;SDS011;53413;49.878;8.142;2022-12-28T08:21:09;6.32;;;2.33;;
66559;SDS011;53413;49.878;8.142;2022-12-28T08:23:38;8.45;;;2.30;;
66559;SDS011;53413;49.878;8.142;2022-12-28T08:26:08;5.83;;;2.60;;
66559;SDS011;53413;49.878;8.142;2022-12-28T08:28:35;7.18;;;2.90;;
66559;SDS011;53413;49.878;8.142;2022-12-28T08:31:09;7.65;;;2.60;;
66559;SDS011;53413;49.878;8.142;2022-12-28T08:33:42;8.02;;;2.58;;
66559;SDS011;53413;49.878;8.142;2022-12-28T08:36:08;6.40;;;2.60;;
66559;SDS011;53413;49.878;8.142;2022-12-28T08:38:35;7.70;;;2.67;;
66559;SDS011;53413;49.878;8.142;2022-12-28T08:41:02;7.50;;;2.50;;
66559;SDS011;53413;49.878;8.142;2022-12-28T08:43:30;8.02;;;2.40;;
66559;SDS011;53413;49.878;8.142;2022-12-28T08:48:22;5.75;;;2.50;;
66559;SDS011;53413;49.878;8.142;2022-12-28T08:50:47;7.33;;;2.70;;
66559;SDS011;53413;49.878;8.142;2022-12-28T08:53:13;8.77;;;3.27;;
66559;SDS011;53413;49.878;8.142;2022-12-28T08:55:38;9.00;;;3.40;;
66559;SDS011;53413;49.878;8.142;2022-12-28T08:58:03;6.53;;;2.60;;
66559;SDS011;53413;49.878;8.142;2022-12-28T09:00:29;6.55;;;3.20;;
66559;SDS011;53413;49.878;8.142;2022-12-28T09:02:57;6.33;;;2.77;;
66559;SDS011;53413;49.878;8.142;2022-12-28T09:05:23;5.70;;;2.50;;
66559;SDS011;53413;49.878;8.142;2022-12-28T09:07:49;7.93;;;2.53;;
66559;SDS011;53413;49.878;8.142;2022-12-28T09:10:15;5.03;;;2.30;;
66559;SDS011;53413;49.878;8.142;2022-12-28T09:12:41;5.10;;;2.30;;
66559;SDS011;53413;49.878;8.142;2022-12-28T09:15:07;5.97;;;2.80;;
66559;SDS011;53413;49.878;8.142;2022-12-28T09:17:32;5.72;;;2.45;;
66559;SDS011;53413;49.878;8.142;2022-12-28T09:19:58;6.20;;;2.30;;
66559;SDS011;53413;49.878;8.142;2022-12-28T09:22:59;5.50;;;2.30;;
66559;SDS011;53413;49.878;8.142;2022-12-28T09:25:18;5.50;;;2.42;;
66559;SDS011;53413;49.878;8.142;2022-12-28T09:27:46;5.87;;;2.30;;
66559;SDS011;53413;49.878;8.142;2022-12-28T09:30:12;7.78;;;2.20;;
66559;SDS011;53413;49.878;8.142;2022-12-28T09:32:38;5.83;;;2.50;;
66559;SDS011;53413;49.878;8.142;2022-12-28T09:35:03;6.28;;;2.30;;
66559;SDS011;53413;49.878;8.142;2022-12-28T09:37:29;5.43;;;2.17;;
66559;SDS011;53413;49.878;8.142;2022-12-28T09:39:54;6.83;;;2.30;;
66559;SDS011;53413;49.878;8.142;2022-12-28T09:42:24;5.60;;;2.00;;
66559;SDS011;53413;49.878;8.142;2022-12-28T09:52:30;7.20;;;2.50;;
66559;SDS011;53413;49.878;8.142;2022-12-28T09:55:12;5.78;;;2.63;;
66559;SDS011;53413;49.878;8.142;2022-12-28T09:57:50;5.93;;;2.67;;
66559;SDS011;53413;49.878;8.142;2022-12-28T10:00:21;6.22;;;2.08;;
66559;SDS011;53413;49.878;8.142;2022-12-28T10:02:59;5.47;;;2.47;;
66559;SDS011;53413;49.878;8.142;2022-12-28T10:05:27;5.05;;;2.20;;
66559;SDS011;53413;49.878;8.142;2022-12-28T10:07:53;6.55;;;2.22;;
66559;SDS011;53413;49.878;8.142;2022-12-28T10:10:21;9.30;;;2.38;;
66559;SDS011;53413;49.878;8.142;2022-12-28T10:12:48;4.90;;;2.00;;
66559;SDS011;53413;49.878;8.142;2022-12-28T10:15:15;8.07;;;2.27;;
66559;SDS011;53413;49.878;8.142;2022-12-28T10:17:41;6.30;;;2.30;;
66559;SDS011;53413;49.878;8.142;2022-12-28T10:20:19;4.80;;;1.88;;
66559;SDS011;53413;49.878;8.142;2022-12-28T10:22:48;4.97;;;1.80;;
66559;SDS011;53413;49.878;8.142;2022-12-28T10:25:17;5.45;;;2.15;;
66559;SDS011;53413;49.878;8.142;2022-12-28T10:27:48;5.77;;;2.10;;
66559;SDS011;53413;49.878;8.142;2022-12-28T10:30:15;5.53;;;2.10;;
66559;SDS011;53413;49.878;8.142;2022-12-28T10:32:57;6.63;;;2.45;;
66559;SDS011;53413;49.878;8.142;2022-12-28T10:37:54;5.13;;;1.80;;
66559;SDS011;53413;49.878;8.142;2022-12-28T10:40:26;4.93;;;1.93;;
66559;SDS011;53413;49.878;8.142;2022-12-28T10:42:54;4.85;;;1.85;;
66559;SDS011;53413;49.878;8.142;2022-12-28T10:45:22;6.07;;;2.00;;
66559;SDS011;53413;49.878;8.142;2022-12-28T10:47:51;6.15;;;2.50;;
66559;SDS011;53413;49.878;8.142;2022-12-28T10:53:16;5.60;;;1.97;;
66559;SDS011;53413;49.878;8.142;2022-12-28T10:56:04;6.07;;;1.85;;
66559;SDS011;53413;49.878;8.142;2022-12-28T10:58:30;6.15;;;1.92;;
66559;SDS011;53413;49.878;8.142;2022-12-28T11:00:57;5.13;;;1.90;;
66559;SDS011;53413;49.878;8.142;2022-12-28T11:03:25;5.53;;;2.10;;
66559;SDS011;53413;49.878;8.142;2022-12-28T11:06:07;5.43;;;2.20;;
66559;SDS011;53413;49.878;8.142;2022-12-28T11:08:40;5.55;;;2.10;;
66559;SDS011;53413;49.878;8.142;2022-12-28T11:11:15;6.93;;;2.20;;
66559;SDS011;53413;49.878;8.142;2022-12-28T11:13:46;6.60;;;2.03;;
66559;SDS011;53413;49.878;8.142;2022-12-28T11:16:34;5.27;;;1.90;;
66559;SDS011;53413;49.878;8.142;2022-12-28T11:19:01;6.65;;;1.90;;
66559;SDS011;53413;49.878;8.142;2022-12-28T11:21:27;6.13;;;2.17;;
66559;SDS011;53413;49.878;8.142;2022-12-28T11:23:53;7.00;;;2.10;;
66559;SDS011;53413;49.878;8.142;2022-12-28T11:26:19;5.90;;;1.60;;
66559;SDS011;53413;49.878;8.142;2022-12-28T11:28:46;5.88;;;2.10;;
66559;SDS011;53413;49.878;8.142;2022-12-28T11:31:32;4.15;;;1.90;;
66559;SDS011;53413;49.878;8.142;2022-12-28T11:34:02;5.95;;;2.10;;
66559;SDS011;53413;49.878;8.142;2022-12-28T11:36:31;4.85;;;1.95;;
66559;SDS011;53413;49.878;8.142;2022-12-28T11:41:49;4.25;;;1.63;;
66559;SDS011;53413;49.878;8.142;2022-12-28T11:46:55;4.65;;;1.60;;
66559;SDS011;53413;49.878;8.142;2022-12-28T11:49:28;4.82;;;1.70;;
66559;SDS011;53413;49.878;8.142;2022-12-28T11:54:50;5.40;;;1.80;;
66559;SDS011;53413;49.878;8.142;2022-12-28T11:57:39;5.82;;;1.73;;
66559;SDS011;53413;49.878;8.142;2022-12-28T12:02:52;4.53;;;1.92;;
66559;SDS011;53413;49.878;8.142;2022-12-28T12:08:02;5.20;;;1.75;;
66559;SDS011;53413;49.878;8.142;2022-12-28T12:10:46;5.95;;;1.77;;
66559;SDS011;53413;49.878;8.142;2022-12-28T12:15:57;4.05;;;1.40;;
66559;SDS011;53413;49.878;8.142;2022-12-28T12:18:27;4.30;;;1.40;;
66559;SDS011;53413;49.878;8.142;2022-12-28T12:21:07;4.63;;;1.58;;
66559;SDS011;53413;49.878;8.142;2022-12-28T12:23:38;4.30;;;1.58;;
66559;SDS011;53413;49.878;8.142;2022-12-28T12:28:55;4.38;;;1.80;;
66559;SDS011;53413;49.878;8.142;2022-12-28T12:31:30;5.90;;;1.70;;
66559;SDS011;53413;49.878;8.142;2022-12-28T12:33:58;5.07;;;1.55;;
66559;SDS011;53413;49.878;8.142;2022-12-28T12:36:40;5.75;;;1.67;;
66559;SDS011;53413;49.878;8.142;2022-12-28T12:42:07;5.10;;;1.70;;
66559;SDS011;53413;49.878;8.142;2022-12-28T12:58:31;4.40;;;1.80;;
66559;SDS011;53413;49.878;8.142;2022-12-28T13:03:48;5.30;;;2.10;;
66559;SDS011;53413;49.878;8.142;2022-12-28T13:06:16;4.57;;;1.70;;
66559;SDS011;53413;49.878;8.142;2022-12-28T13:08:46;4.57;;;1.70;;
66559;SDS011;53413;49.878;8.142;2022-12-28T13:11:15;6.25;;;1.80;;
66559;SDS011;53413;49.878;8.142;2022-12-28T13:13:43;4.37;;;1.60;;
66559;SDS011;53413;49.878;8.142;2022-12-28T13:16:15;5.75;;;1.60;;
66559;SDS011;53413;49.878;8.142;2022-12-28T13:18:52;4.47;;;1.80;;
66559;SDS011;53413;49.878;8.142;2022-12-28T13:21:20;4.15;;;1.80;;
66559;SDS011;53413;49.878;8.142;2022-12-28T13:23:46;3.80;;;1.70;;
66559;SDS011;53413;49.878;8.142;2022-12-28T13:26:13;5.47;;;1.70;;
66559;SDS011;53413;49.878;8.142;2022-12-28T13:28:56;5.35;;;1.88;;
66559;SDS011;53413;49.878;8.142;2022-12-28T13:31:28;5.45;;;2.30;;
66559;SDS011;53413;49.878;8.142;2022-12-28T13:33:58;5.25;;;2.08;;
66559;SDS011;53413;49.878;8.142;2022-12-28T13:36:28;6.40;;;2.10;;
66559;SDS011;53413;49.878;8.142;2022-12-28T13:39:01;5.07;;;1.90;;
66559;SDS011;53413;49.878;8.142;2022-12-28T13:41:35;5.68;;;1.67;;
66559;SDS011;53413;49.878;8.142;2022-12-28T13:44:08;4.93;;;1.60;;
66559;SDS011;53413;49.878;8.142;2022-12-28T13:46:41;4.63;;;1.80;;
66559;SDS011;53413;49.878;8.142;2022-12-28T13:49:09;6.68;;;2.30;;
66559;SDS011;53413;49.878;8.142;2022-12-28T13:51:37;4.97;;;1.70;;
66559;SDS011;53413;49.878;8.142;2022-12-28T13:54:04;4.57;;;1.60;;
66559;SDS011;53413;49.878;8.142;2022-12-28T13:56:31;6.33;;;2.10;;
66559;SDS011;53413;49.878;8.142;2022-12-28T13:58:59;6.38;;;2.75;;
66559;SDS011;53413;49.878;8.142;2022-12-28T14:01:33;6.28;;;2.70;;
66559;SDS011;53413;49.878;8.142;2022-12-28T14:04:02;5.30;;;2.20;;
66559;SDS011;53413;49.878;8.142;2022-12-28T14:06:31;6.03;;;1.90;;
66559;SDS011;53413;49.878;8.142;2022-12-28T14:08:56;5.13;;;1.70;;
66559;SDS011;53413;49.878;8.142;2022-12-28T14:11:22;3.58;;;1.40;;
66559;SDS011;53413;49.878;8.142;2022-12-28T14:13:48;5.57;;;1.70;;
66559;SDS011;53413;49.878;8.142;2022-12-28T14:16:14;4.57;;;1.58;;
66559;SDS011;53413;49.878;8.142;2022-12-28T14:18:40;4.13;;;1.50;;
66559;SDS011;53413;49.878;8.142;2022-12-28T14:21:06;4.45;;;1.60;;
66559;SDS011;53413;49.878;8.142;2022-12-28T14:23:35;5.03;;;1.40;;
66559;SDS011;53413;49.878;8.142;2022-12-28T14:26:03;4.15;;;1.90;;
66559;SDS011;53413;49.878;8.142;2022-12-28T14:31:02;3.53;;;1.35;;
66559;SDS011;53413;49.878;8.142;2022-12-28T14:33:31;5.38;;;1.52;;
66559;SDS011;53413;49.878;8.142;2022-12-28T14:35:59;4.60;;;1.50;;
66559;SDS011;53413;49.878;8.142;2022-12-28T14:38:45;4.20;;;1.50;;
66559;SDS011;53413;49.878;8.142;2022-12-28T14:41:15;3.80;;;1.60;;
66559;SDS011;53413;49.878;8.142;2022-12-28T14:43:49;5.78;;;1.60;;
66559;SDS011;53413;49.878;8.142;2022-12-28T14:46:26;4.28;;;1.60;;
66559;SDS011;53413;49.878;8.142;2022-12-28T14:48:55;4.60;;;1.47;;
66559;SDS011;53413;49.878;8.142;2022-12-28T14:56:42;4.70;;;1.80;;
66559;SDS011;53413;49.878;8.142;2022-12-28T14:59:18;5.55;;;1.80;;
66559;SDS011;53413;49.878;8.142;2022-12-28T15:01:48;5.32;;;1.70;;
66559;SDS011;53413;49.878;8.142;2022-12-28T15:04:59;4.87;;;2.07;;
66559;SDS011;53413;49.878;8.142;2022-12-28T15:07:04;3.78;;;1.70;;
66559;SDS011;53413;49.878;8.142;2022-12-28T15:09:30;4.72;;;2.03;;
66559;SDS011;53413;49.878;8.142;2022-12-28T15:14:33;4.82;;;1.60;;
66559;SDS011;53413;49.878;8.142;2022-12-28T15:16:58;4.63;;;2.17;;
66559;SDS011;53413;49.878;8.142;2022-12-28T15:19:23;6.90;;;2.10;;
66559;SDS011;53413;49.878;8.142;2022-12-28T15:21:49;8.57;;;3.53;;
66559;SDS011;53413;49.878;8.142;2022-12-28T15:24:14;6.37;;;2.70;;
66559;SDS011;53413;49.878;8.142;2022-12-28T15:26:39;5.63;;;2.37;;
66559;SDS011;53413;49.878;8.142;2022-12-28T15:29:05;5.37;;;2.60;;
66559;SDS011;53413;49.878;8.142;2022-12-28T15:31:30;4.30;;;1.83;;
66559;SDS011;53413;49.878;8.142;2022-12-28T15:33:55;4.40;;;1.50;;
66559;SDS011;53413;49.878;8.142;2022-12-28T15:36:21;4.10;;;1.70;;
66559;SDS011;53413;49.878;8.142;2022-12-28T15:38:48;4.70;;;1.80;;
66559;SDS011;53413;49.878;8.142;2022-12-28T15:41:14;4.63;;;1.77;;
66559;SDS011;53413;49.878;8.142;2022-12-28T15:43:59;4.35;;;1.77;;
66559;SDS011;53413;49.878;8.142;2022-12-28T15:46:25;3.80;;;1.57;;
66559;SDS011;53413;49.878;8.142;2022-12-28T15:48:50;4.63;;;1.73;;
66559;SDS011;53413;49.878;8.142;2022-12-28T15:51:16;5.17;;;1.77;;
66559;SDS011;53413;49.878;8.142;2022-12-28T15:53:41;5.00;;;1.90;;
66559;SDS011;53413;49.878;8.142;2022-12-28T15:56:16;4.53;;;1.60;;
66559;SDS011;53413;49.878;8.142;2022-12-28T15:58:44;5.78;;;1.90;;
66559;SDS011;53413;49.878;8.142;2022-12-28T16:01:09;4.67;;;1.90;;
66559;SDS011;53413;49.878;8.142;2022-12-28T16:03:34;4.60;;;1.60;;
66559;SDS011;53413;49.878;8.142;2022-12-28T16:06:00;5.25;;;2.33;;
66559;SDS011;53413;49.878;8.142;2022-12-28T16:08:27;6.70;;;2.40;;
66559;SDS011;53413;49.878;8.142;2022-12-28T16:10:53;6.68;;;2.80;;
66559;SDS011;53413;49.878;8.142;2022-12-28T16:13:18;5.20;;;2.20;;
66559;SDS011;53413;49.878;8.142;2022-12-28T16:15:43;7.27;;;2.90;;
66559;SDS011;53413;49.878;8.142;2022-12-28T16:18:09;5.50;;;2.40;;
66559;SDS011;53413;49.878;8.142;2022-12-28T16:20:34;10.20;;;4.60;;
66559;SDS011;53413;49.878;8.142;2022-12-28T16:23:00;11.33;;;4.00;;
66559;SDS011;53413;49.878;8.142;2022-12-28T16:25:25;12.97;;;5.60;;
66559;SDS011;53413;49.878;8.142;2022-12-28T16:27:50;11.55;;;5.05;;
66559;SDS011;53413;49.878;8.142;2022-12-28T16:30:16;16.73;;;8.10;;
66559;SDS011;53413;49.878;8.142;2022-12-28T16:32:41;14.20;;;5.63;;
66559;SDS011;53413;49.878;8.142;2022-12-28T16:35:07;11.73;;;5.13;;
66559;SDS011;53413;49.878;8.142;2022-12-28T16:37:32;7.75;;;4.43;;